Terminal Aerodrome Forecast
Issued by NWS Portland, OR

Home | Current Version | Previous Version | Text Only | Print | Product List | Glossary On
Versions: 1 2 3 4 5 6 7 8 9 10 11 12 13 14 15 16 17 18
000
FTUS46 KPQR 301129
TAFAST
TAF
KAST 301129Z 3012/3112 25006KT 6SM -SHRA OVC015
     FM301800 25007KT P6SM SCT009 OVC015
     FM310600 VRB03KT P6SM OVC015=

USA.gov is the U.S. government's official web portal to all federal, state and local government web resources and services.